Time;durP1;ratioP1;P1;durP2;ratioP2;P2;SDS_P1;SDS_P2;PMS_P1;PMS_P2;Temp;Humidity;BMP_temperature;BMP_pressure;BME280_temperature;BME280_humidity;BME280_pressure;Samples;Min_cycle;Max_cycle;Signal;HPM_P1;HPM_P2
2021/04/01 00:00:57;;;;;;;;;;;;;;;27.96;22.58;101258.84;5099665;28;842;-41
2021/04/01 00:03:22;;;;;;;;;;;;;;;27.74;22.73;101261.31;5116640;28;959;-30
2021/04/01 00:05:47;;;;;;;;;;;;;;;27.66;22.84;101267.53;5120053;28;755;-28
2021/04/01 00:08:13;;;;;;;;;;;;;;;27.48;23.26;101265.91;5119528;28;1961;-29
2021/04/01 00:10:42;;;;;;;;;;;;;;;27.74;22.81;101267.53;5120263;28;727;-27
2021/04/01 00:13:07;;;;;;;;;;;;;;;28.03;22.66;101269.81;5105476;28;1333;-29
2021/04/01 00:15:33;;;;;;;;;;;;;;;27.97;22.45;101261.38;5080820;28;2209;-27
2021/04/01 00:17:59;;;;;;;;;;;;;;;27.86;22.49;101264.47;5099389;28;955;-40
2021/04/01 00:20:24;;;;;;;;;;;;;;;27.75;22.63;101258.41;5099364;28;803;-29
2021/04/01 00:22:49;;;;;;;;;;;;;;;27.57;22.80;101255.06;5099891;28;790;-30
2021/04/01 00:25:16;;;;;;;;;;;;;;;27.21;23.68;101259.06;5099449;28;834;-27
2021/04/01 00:27:42;;;;;;;;;;;;;;;27.57;23.33;101258.63;5099292;28;779;-29
2021/04/01 00:30:07;;;;;;;;;;;;;;;27.78;22.69;101256.41;5099791;28;1901;-30
2021/04/01 00:32:33;;;;;;;;;;;;;;;28.12;22.30;101257.91;5099089;28;935;-28
2021/04/01 00:34:58;;;;;;;;;;;;;;;27.95;22.12;101246.31;5099071;28;855;-32
2021/04/01 00:37:23;;;;;;;;;;;;;;;27.82;22.56;101242.34;5099648;28;783;-31
2021/04/01 00:39:48;;;;;;;;;;;;;;;27.67;22.40;101235.94;5097866;28;886;-32
2021/04/01 00:42:14;;;;;;;;;;;;;;;27.53;22.57;101246.47;5098901;28;1306;-28
2021/04/01 00:44:39;;;;;;;;;;;;;;;27.35;23.68;101236.72;5099235;28;755;-27
2021/04/01 00:47:05;;;;;;;;;;;;;;;27.72;23.15;101242.56;5098414;28;1010;-28
2021/04/01 00:49:30;;;;;;;;;;;;;;;28.15;22.40;101237.75;5098467;28;2351;-31
2021/04/01 00:51:56;;;;;;;;;;;;;;;27.93;22.39;101240.25;5099140;28;767;-29
2021/04/01 00:54:21;;;;;;;;;;;;;;;27.78;22.66;101234.78;5098391;28;859;-28
2021/04/01 00:56:46;;;;;;;;;;;;;;;27.66;22.35;101221.56;5098626;28;822;-31
2021/04/01 00:59:11;;;;;;;;;;;;;;;27.49;23.23;101229.75;5099111;28;767;-30
2021/04/01 01:01:44;;;;;;;;;;;;;;;27.79;23.06;101223.78;5098258;28;1010;-30
2021/04/01 01:04:10;;;;;;;;;;;;;;;28.05;22.54;101222.63;5098786;28;790;-30
2021/04/01 01:06:36;;;;;;;;;;;;;;;28.03;22.39;101219.25;5098898;28;736;-28
2021/04/01 01:09:01;;;;;;;;;;;;;;;27.76;22.25;101221.41;5098222;28;1973;-29
2021/04/01 01:11:28;;;;;;;;;;;;;;;27.60;22.48;101225.00;5098387;28;846;-29
2021/04/01 01:13:54;;;;;;;;;;;;;;;27.09;23.82;101221.56;5098855;28;771;-31
2021/04/01 01:16:19;;;;;;;;;;;;;;;27.46;23.51;101218.47;5098290;28;1114;-28
2021/04/01 01:18:44;;;;;;;;;;;;;;;27.78;22.98;101207.72;5098154;28;939;-28
2021/04/01 01:21:10;;;;;;;;;;;;;;;27.94;22.10;101213.06;5098397;28;882;-29
2021/04/01 01:23:35;;;;;;;;;;;;;;;27.86;22.24;101216.63;5097498;28;839;-28
2021/04/01 01:26:00;;;;;;;;;;;;;;;27.62;22.54;101209.44;5080533;28;735;-30
2021/04/01 01:28:26;;;;;;;;;;;;;;;27.23;23.57;101221.88;5098266;28;1977;-28
2021/04/01 01:30:51;;;;;;;;;;;;;;;27.55;23.04;101212.00;5097491;28;700;-33
2021/04/01 01:33:19;;;;;;;;;;;;;;;27.92;22.65;101211.53;5098226;28;962;-30
2021/04/01 01:35:46;;;;;;;;;;;;;;;28.00;22.30;101208.78;5098095;28;860;-32
2021/04/01 01:38:12;;;;;;;;;;;;;;;27.85;22.30;101211.41;5097857;28;811;-30
2021/04/01 01:40:37;;;;;;;;;;;;;;;27.65;22.57;101206.41;5097934;28;839;-29
2021/04/01 01:43:06;;;;;;;;;;;;;;;27.55;22.55;101206.59;5097879;28;1521;-32
2021/04/01 01:45:31;;;;;;;;;;;;;;;27.54;23.02;101207.63;5097513;28;740;-30
2021/04/01 01:47:57;;;;;;;;;;;;;;;27.71;22.96;101200.31;5097901;28;1913;-29
2021/04/01 01:50:23;;;;;;;;;;;;;;;28.10;22.12;101197.72;5097767;28;736;-31
2021/04/01 01:52:48;;;;;;;;;;;;;;;27.94;22.51;101204.09;5096683;28;775;-30
2021/04/01 01:55:13;;;;;;;;;;;;;;;27.59;22.68;101207.09;5097747;28;763;-31
2021/04/01 01:57:39;;;;;;;;;;;;;;;27.56;22.66;101210.16;5097741;28;744;-31
2021/04/01 02:00:08;;;;;;;;;;;;;;;27.32;23.80;101209.22;5096957;28;811;-30
2021/04/01 02:02:33;;;;;;;;;;;;;;;27.52;23.39;101206.97;5094616;28;950;-28
2021/04/01 02:04:58;;;;;;;;;;;;;;;27.81;22.73;101205.50;5097032;28;760;-31
2021/04/01 02:07:24;;;;;;;;;;;;;;;27.90;22.64;101206.31;5097206;28;825;-33
2021/04/01 02:09:49;;;;;;;;;;;;;;;27.66;22.93;101218.06;5097672;28;1894;-31
2021/04/01 02:12:14;;;;;;;;;;;;;;;27.60;22.93;101215.03;5104033;28;1128;-27
2021/04/01 02:14:40;;;;;;;;;;;;;;;27.38;23.32;101213.91;5117448;28;839;-31
2021/04/01 02:17:06;;;;;;;;;;;;;;;27.43;23.22;101211.53;5117263;28;962;-29
2021/04/01 02:19:32;;;;;;;;;;;;;;;27.72;22.93;101218.22;5117788;28;770;-29
2021/04/01 02:21:57;;;;;;;;;;;;;;;28.11;22.37;101202.97;5117554;28;846;-32
2021/04/01 02:24:22;;;;;;;;;;;;;;;27.82;22.44;101211.75;5117367;28;806;-31
2021/04/01 02:26:47;;;;;;;;;;;;;;;27.67;22.69;101214.31;5117466;28;794;-30
2021/04/01 02:29:13;;;;;;;;;;;;;;;27.57;22.67;101203.72;5117246;28;1898;-33
2021/04/01 02:31:38;;;;;;;;;;;;;;;27.54;23.25;101204.06;5116460;28;974;-31
2021/04/01 02:34:03;;;;;;;;;;;;;;;27.50;23.27;101204.44;5117355;28;795;-29
2021/04/01 02:36:29;;;;;;;;;;;;;;;28.02;22.35;101203.19;5117137;28;766;-29
2021/04/01 02:38:54;;;;;;;;;;;;;;;27.93;22.22;101202.38;5117540;28;948;-30
2021/04/01 02:41:19;;;;;;;;;;;;;;;27.71;22.39;101203.00;5117623;28;814;-41
2021/04/01 02:43:44;;;;;;;;;;;;;;;27.59;22.74;101207.09;5116925;28;1083;-29
2021/04/01 02:46:12;;;;;;;;;;;;;;;27.44;23.24;101204.28;5117341;28;877;-32
2021/04/01 02:48:37;;;;;;;;;;;;;;;27.56;23.04;101202.88;5116266;28;1968;-30
2021/04/01 02:51:02;;;;;;;;;;;;;;;27.88;22.79;101200.22;5117012;28;838;-29
2021/04/01 02:53:28;;;;;;;;;;;;;;;27.91;22.25;101204.44;5117103;28;525;-32
2021/04/01 02:55:53;;;;;;;;;;;;;;;27.69;22.17;101205.06;5116828;28;852;-32
2021/04/01 02:58:18;;;;;;;;;;;;;;;27.62;22.64;101209.44;5117519;28;856;-31
2021/04/01 03:00:44;;;;;;;;;;;;;;;27.44;23.19;101209.69;5116929;28;732;-27
2021/04/01 03:05:34;;;;;;;;;;;;;;;27.71;22.80;101204.91;5117070;28;786;-29
2021/04/01 03:08:00;;;;;;;;;;;;;;;28.16;22.14;101204.31;5116841;28;1906;-30
2021/04/01 03:10:25;;;;;;;;;;;;;;;27.84;22.10;101193.50;5116611;28;814;-31
2021/04/01 03:12:50;;;;;;;;;;;;;;;27.12;21.67;101194.25;5105306;28;1189;-31
2021/04/01 03:15:16;;;;;;;;;;;;;;;26.55;22.56;101195.09;5096233;28;731;-28
2021/04/01 03:17:41;;;;;;;;;;;;;;;27.05;22.08;101198.66;5096344;28;959;-28
2021/04/01 03:20:07;;;;;;;;;;;;;;;27.06;22.23;101192.22;5096639;28;775;-30
2021/04/01 03:22:32;;;;;;;;;;;;;;;27.42;21.52;101196.34;5096490;28;783;-29
2021/04/01 03:24:58;;;;;;;;;;;;;;;27.34;21.89;101201.78;5096874;28;743;-28
2021/04/01 03:27:23;;;;;;;;;;;;;;;24.82;21.07;101195.88;5096712;28;823;-35
2021/04/01 03:30:07;;;;;;;;;;;;;;;25.96;22.47;101200.38;5095915;28;1964;-30
2021/04/01 03:32:33;;;;;;;;;;;;;;;26.24;22.94;101196.56;5096720;28;942;-32
2021/04/01 03:34:58;;;;;;;;;;;;;;;26.51;22.52;101198.13;5096658;28;786;-32
2021/04/01 03:37:23;;;;;;;;;;;;;;;27.13;21.42;101195.94;5095672;28;881;-30
2021/04/01 03:39:49;;;;;;;;;;;;;;;27.41;21.12;101201.94;5096707;28;736;-32
2021/04/01 03:42:14;;;;;;;;;;;;;;;27.28;21.22;101205.19;5096696;28;1107;-33
2021/04/01 03:44:39;;;;;;;;;;;;;;;26.04;19.61;101195.00;5095806;28;779;-36
2021/04/01 03:47:05;;;;;;;;;;;;;;;24.21;20.58;101191.13;5096380;28;1011;-36
2021/04/01 03:49:30;;;;;;;;;;;;;;;23.16;22.02;101190.31;5096346;28;1914;-39
2021/04/01 03:51:55;;;;;;;;;;;;;;;24.21;21.76;101205.44;5095927;28;839;-32
2021/04/01 03:54:20;;;;;;;;;;;;;;;25.59;19.25;101204.28;5096793;28;821;-27
2021/04/01 03:56:48;;;;;;;;;;;;;;;25.89;19.33;101208.28;5095982;28;886;-29
2021/04/01 03:59:14;;;;;;;;;;;;;;;26.05;19.00;101212.03;5095489;28;971;-43
2021/04/01 04:01:52;;;;;;;;;;;;;;;25.54;17.87;101207.44;5095983;28;1010;-40
2021/04/01 04:05:21;;;;;;;;;;;;;;;24.14;19.20;101198.91;5097061;28;1298;-45
2021/04/01 04:12:49;;;;;;;;;;;;;;;23.03;20.66;101192.44;5105622;28;984;-39
2021/04/01 04:15:22;;;;;;;;;;;;;;;23.71;20.76;101193.22;5097671;28;841;-38
2021/04/01 04:17:48;;;;;;;;;;;;;;;23.50;20.29;101205.06;5100496;28;938;-36
2021/04/01 04:20:13;;;;;;;;;;;;;;;22.62;20.44;101194.34;5096901;28;823;-37
2021/04/01 04:22:38;;;;;;;;;;;;;;;22.45;20.80;101190.50;5101049;28;1400;-38
2021/04/01 04:25:06;;;;;;;;;;;;;;;23.48;20.55;101205.22;5100274;28;1150;-37
2021/04/01 04:27:48;;;;;;;;;;;;;;;23.66;20.50;101206.25;5121772;27;851;-37
2021/04/01 04:30:13;;;;;;;;;;;;;;;23.39;20.46;101208.72;5119878;28;1966;-38
2021/04/01 04:32:38;;;;;;;;;;;;;;;23.04;20.70;101205.72;5119274;28;934;-38
2021/04/01 04:35:04;;;;;;;;;;;;;;;22.69;20.93;101207.19;5118937;28;871;-36
2021/04/01 04:37:29;;;;;;;;;;;;;;;20.89;22.96;101203.94;5120053;28;802;-37
2021/04/01 04:39:55;;;;;;;;;;;;;;;22.96;21.20;101205.59;5119977;28;813;-37
2021/04/01 04:42:20;;;;;;;;;;;;;;;24.49;20.55;101207.19;5111964;28;1128;-31
2021/04/01 04:44:45;;;;;;;;;;;;;;;25.19;20.26;101210.13;5099099;28;877;-38
2021/04/01 04:47:10;;;;;;;;;;;;;;;25.17;20.88;101210.25;5105203;28;947;-31
2021/04/01 04:49:36;;;;;;;;;;;;;;;24.63;21.78;101204.97;5118815;28;1976;-36
2021/04/01 04:52:01;;;;;;;;;;;;;;;24.85;21.35;101211.72;5119626;28;740;-33
2021/04/01 04:54:30;;;;;;;;;;;;;;;25.54;20.57;101218.22;5119213;28;806;-31
2021/04/01 04:56:57;;;;;;;;;;;;;;;25.94;20.22;101218.59;5119089;28;775;-38
2021/04/01 05:05:10;;;;;;;;;;;;;;;26.09;20.39;101216.06;5035932;28;602;-37
2021/04/01 05:07:36;;;;;;;;;;;;;;;26.32;20.12;101220.00;5084517;28;960;-31
2021/04/01 05:10:01;;;;;;;;;;;;;;;26.55;19.82;101216.69;5119109;28;1901;-33
2021/04/01 05:12:26;;;;;;;;;;;;;;;26.67;19.74;101219.91;5118951;28;1032;-32
2021/04/01 05:14:52;;;;;;;;;;;;;;;26.53;20.16;101216.84;5118874;28;798;-34
2021/04/01 05:17:18;;;;;;;;;;;;;;;26.25;20.54;101215.28;5118224;28;954;-29
2021/04/01 05:19:44;;;;;;;;;;;;;;;27.01;20.05;101214.34;5118660;28;775;-30
2021/04/01 05:25:13;;;;;;;;;;;;;;;26.40;20.76;101202.03;5035684;28;1434;-41
2021/04/01 05:27:43;;;;;;;;;;;;;;;26.03;21.69;101206.81;5091424;28;1333;-39
2021/04/01 05:30:09;;;;;;;;;;;;;;;26.68;20.49;101214.34;5113312;28;1894;-38
2021/04/01 05:32:41;;;;;;;;;;;;;;;27.14;20.28;101215.69;5108166;28;949;-37
2021/04/01 05:35:09;;;;;;;;;;;;;;;27.07;20.32;101214.66;5097749;28;787;-35
2021/04/01 05:37:34;;;;;;;;;;;;;;;27.00;20.22;101217.19;5098194;28;1459;-34
2021/04/01 05:40:00;;;;;;;;;;;;;;;26.23;21.25;101214.59;5101543;28;1023;-32
2021/04/01 05:42:30;;;;;;;;;;;;;;;26.90;20.43;101214.66;5100125;28;1083;-33
2021/04/01 05:45:04;;;;;;;;;;;;;;;27.23;20.31;101224.59;5118562;28;823;-32
2021/04/01 05:47:39;;;;;;;;;;;;;;;27.13;20.09;101214.81;5101090;28;945;-36
2021/04/01 05:58:16;;;;;;;;;;;;;;;27.63;20.15;101232.75;5096980;28;648;-34
2021/04/01 06:05:52;;;;;;;;;;;;;;;27.12;20.87;101233.91;5117416;28;648;-38
2021/04/01 06:08:20;;;;;;;;;;;;;;;27.30;21.09;101239.09;5100569;28;1906;-42
2021/04/01 06:10:48;;;;;;;;;;;;;;;27.82;20.74;101241.50;5118179;28;811;-38
2021/04/01 06:13:14;;;;;;;;;;;;;;;27.71;20.26;101238.16;5102636;28;1119;-35
2021/04/01 06:15:39;;;;;;;;;;;;;;;27.38;20.87;101243.63;5097799;28;816;-36
2021/04/01 06:18:25;;;;;;;;;;;;;;;27.39;20.98;101245.34;5097287;28;1154;-38
2021/04/01 06:20:50;;;;;;;;;;;;;;;27.12;21.34;101239.31;5096614;28;1497;-42
2021/04/01 06:23:29;;;;;;;;;;;;;;;27.25;21.34;101246.88;5097712;28;810;-42
2021/04/01 06:25:55;;;;;;;;;;;;;;;27.65;20.62;101249.63;5096815;28;821;-37
2021/04/01 06:28:22;;;;;;;;;;;;;;;27.55;20.64;101249.84;5096901;28;1910;-40
2021/04/01 06:30:52;;;;;;;;;;;;;;;27.59;20.40;101259.28;5097280;28;819;-41
2021/04/01 06:33:23;;;;;;;;;;;;;;;27.56;20.42;101253.41;5096888;28;955;-40
2021/04/01 06:35:52;;;;;;;;;;;;;;;27.50;20.90;101253.06;5078248;28;1121;-38
2021/04/01 06:40:55;;;;;;;;;;;;;;;28.02;20.36;101262.69;5136831;27;854;-36
2021/04/01 06:43:24;;;;;;;;;;;;;;;27.92;20.54;101250.25;5099397;27;1302;-38
2021/04/01 06:46:01;;;;;;;;;;;;;;;27.86;20.28;101257.19;5096870;28;763;-34
2021/04/01 06:51:29;;;;;;;;;;;;;;;28.01;20.55;101255.59;5087509;28;1310;-39
2021/04/01 06:56:38;;;;;;;;;;;;;;;27.96;20.60;101261.56;5096465;28;596;-31
2021/04/01 07:02:13;;;;;;;;;;;;;;;27.97;20.33;101255.97;5044996;28;1084;-33
2021/04/01 07:04:39;;;;;;;;;;;;;;;28.04;20.62;101263.34;5080986;28;823;-35
2021/04/01 07:07:07;;;;;;;;;;;;;;;28.08;20.50;101261.97;5096654;28;795;-36
2021/04/01 07:09:49;;;;;;;;;;;;;;;28.08;20.70;101264.69;5096321;28;1977;-40
2021/04/01 07:12:17;;;;;;;;;;;;;;;28.14;20.46;101255.03;5084158;28;1183;-38
2021/04/01 07:14:43;;;;;;;;;;;;;;;28.12;20.66;101252.50;5117092;28;760;-39
2021/04/01 07:17:11;;;;;;;;;;;;;;;28.20;20.59;101262.41;5115844;28;938;-37
2021/04/01 07:36:03;;;;;;;;;;;;;;;28.51;20.50;101258.03;5097397;28;920;-37
2021/04/01 07:46:44;;;;;;;;;;;;;;;28.14;20.62;101250.47;5095784;28;993;-33
2021/04/01 07:49:15;;;;;;;;;;;;;;;27.12;21.61;101250.97;5097837;28;1977;-37
2021/04/01 07:52:00;;;;;;;;;;;;;;;27.28;21.88;101245.72;5096971;28;776;-36
2021/04/01 07:59:54;;;;;;;;;;;;;;;28.37;20.58;101230.72;5099653;28;660;-35
2021/04/01 08:04:57;;;;;;;;;;;;;;;28.58;20.34;101229.22;5099613;28;658;-39
2021/04/01 08:07:23;;;;;;;;;;;;;;;28.70;19.89;101229.63;5099407;28;817;-39
2021/04/01 08:09:49;;;;;;;;;;;;;;;28.73;19.94;101230.09;5081579;28;1906;-31
2021/04/01 08:12:19;;;;;;;;;;;;;;;28.62;20.15;101225.13;5086405;28;1397;-33
2021/04/01 08:14:46;;;;;;;;;;;;;;;28.81;19.95;101221.06;5099819;28;1174;-37
2021/04/01 08:17:18;;;;;;;;;;;;;;;28.85;19.61;101219.69;5110320;28;1154;-36
2021/04/01 08:19:43;;;;;;;;;;;;;;;28.89;19.92;101219.31;5091037;28;1276;-32
2021/04/01 08:22:12;;;;;;;;;;;;;;;28.91;19.72;101218.09;5092142;28;1208;-34
2021/04/01 08:24:45;;;;;;;;;;;;;;;28.97;19.82;101219.28;5109096;28;1349;-34
2021/04/01 08:35:23;;;;;;;;;;;;;;;28.94;19.75;101214.19;5107610;28;1050;-34
2021/04/01 08:40:32;;;;;;;;;;;;;;;28.82;19.96;101216.50;5084341;28;824;-34
2021/04/01 08:43:36;;;;;;;;;;;;;;;28.78;20.15;101207.91;5098786;28;1301;-37
2021/04/01 08:46:04;;;;;;;;;;;;;;;28.86;20.29;101207.00;5116929;27;1242;-31
2021/04/01 08:48:39;;;;;;;;;;;;;;;28.85;19.36;101208.00;5100606;28;1984;-37
2021/04/01 08:51:08;;;;;;;;;;;;;;;28.83;19.83;101208.19;5098279;28;884;-36
2021/04/01 08:53:38;;;;;;;;;;;;;;;28.71;19.81;101196.13;5119483;28;755;-34
2021/04/01 08:56:17;;;;;;;;;;;;;;;28.46;19.44;101193.63;5101078;28;835;-30
2021/04/01 08:58:46;;;;;;;;;;;;;;;28.35;19.69;101181.38;5085736;28;2025;-32
2021/04/01 09:01:15;;;;;;;;;;;;;;;28.62;20.15;101184.53;5100182;28;802;-37
2021/04/01 09:03:44;;;;;;;;;;;;;;;28.85;19.79;101184.50;5101116;28;938;-34
2021/04/01 09:06:10;;;;;;;;;;;;;;;29.02;19.62;101192.47;5101199;28;744;-31
2021/04/01 09:08:36;;;;;;;;;;;;;;;29.05;19.66;101197.53;5118529;28;1906;-33
2021/04/01 09:11:01;;;;;;;;;;;;;;;29.08;19.78;101194.44;5118490;28;847;-38
2021/04/01 09:13:30;;;;;;;;;;;;;;;29.26;19.82;101198.63;5102078;28;1111;-40
2021/04/01 09:16:14;;;;;;;;;;;;;;;29.07;19.43;101186.50;5094104;28;805;-36
2021/04/01 09:18:43;;;;;;;;;;;;;;;27.97;19.25;101184.81;5107023;28;1229;-39
2021/04/01 09:21:09;;;;;;;;;;;;;;;27.67;20.02;101187.28;5100760;28;768;-34
2021/04/01 09:23:34;;;;;;;;;;;;;;;27.60;20.20;101192.56;5098064;28;850;-39
2021/04/01 09:26:01;;;;;;;;;;;;;;;28.32;20.14;101189.81;5100775;28;1194;-35
2021/04/01 09:28:33;;;;;;;;;;;;;;;28.67;19.91;101182.13;5107085;28;1962;-37
2021/04/01 09:30:59;;;;;;;;;;;;;;;28.87;19.60;101189.72;5106678;28;1355;-35
2021/04/01 09:33:25;;;;;;;;;;;;;;;28.97;19.34;101184.06;5112030;28;1158;-36
2021/04/01 09:35:51;;;;;;;;;;;;;;;29.14;19.49;101186.59;5100683;28;832;-38
2021/04/01 09:38:17;;;;;;;;;;;;;;;29.17;19.11;101181.66;5118484;28;802;-39
2021/04/01 09:40:43;;;;;;;;;;;;;;;29.18;19.18;101185.19;5118480;28;796;-37
2021/04/01 09:43:18;;;;;;;;;;;;;;;29.23;19.31;101190.88;5118148;28;1066;-39
2021/04/01 09:45:44;;;;;;;;;;;;;;;29.36;19.03;101181.28;5118035;28;787;-37
2021/04/01 09:48:10;;;;;;;;;;;;;;;29.42;18.91;101189.50;5117421;28;973;-36
2021/04/01 09:50:36;;;;;;;;;;;;;;;29.42;19.14;101184.06;5118388;28;2036;-34
2021/04/01 09:53:03;;;;;;;;;;;;;;;29.54;18.79;101184.44;5117718;28;847;-32
2021/04/01 09:55:39;;;;;;;;;;;;;;;29.68;18.95;101181.88;5118294;28;904;-35
2021/04/01 09:58:17;;;;;;;;;;;;;;;29.61;18.45;101175.56;5117698;28;819;-33
2021/04/01 10:03:27;;;;;;;;;;;;;;;29.62;16.51;101169.09;5117141;28;947;-34
2021/04/01 10:05:53;;;;;;;;;;;;;;;29.72;16.55;101176.94;5117911;28;723;-33
2021/04/01 10:08:25;;;;;;;;;;;;;;;29.59;15.95;101162.22;5117101;28;1894;-33
2021/04/01 10:10:50;;;;;;;;;;;;;;;29.68;16.06;101152.91;5118131;28;803;-33
2021/04/01 10:13:17;;;;;;;;;;;;;;;29.65;16.15;101160.59;5101837;28;1224;-34
2021/04/01 10:15:42;;;;;;;;;;;;;;;29.62;16.67;101160.97;5116519;28;839;-40
2021/04/01 10:18:07;;;;;;;;;;;;;;;29.53;16.54;101155.63;5117615;28;985;-31
2021/04/01 10:20:36;;;;;;;;;;;;;;;29.49;16.94;101153.50;5098552;28;1008;-35
2021/04/01 10:23:07;;;;;;;;;;;;;;;29.53;16.99;101141.25;5117462;28;759;-40
2021/04/01 10:25:37;;;;;;;;;;;;;;;29.46;16.94;101152.84;5117376;28;844;-32
2021/04/01 10:28:10;;;;;;;;;;;;;;;29.29;16.78;101143.25;5106158;28;1132;-39
2021/04/01 10:30:36;;;;;;;;;;;;;;;28.94;17.25;101133.81;5098850;28;1906;-31
2021/04/01 10:33:20;;;;;;;;;;;;;;;28.73;17.38;101138.06;5096923;28;923;-36
2021/04/01 10:35:49;;;;;;;;;;;;;;;28.61;17.71;101134.16;5078835;28;808;-34
2021/04/01 10:38:14;;;;;;;;;;;;;;;28.29;17.84;101125.25;5116918;28;887;-36
2021/04/01 10:40:40;;;;;;;;;;;;;;;27.74;18.30;101120.75;5117335;28;783;-35
2021/04/01 10:43:06;;;;;;;;;;;;;;;27.59;18.70;101112.53;5117497;28;1256;-28
2021/04/01 10:45:32;;;;;;;;;;;;;;;27.55;18.80;101119.28;5117358;28;808;-31
2021/04/01 10:47:58;;;;;;;;;;;;;;;27.48;18.91;101117.28;5116902;28;965;-28
2021/04/01 10:50:26;;;;;;;;;;;;;;;27.42;18.94;101117.16;5117151;28;1979;-30
2021/04/01 10:52:52;;;;;;;;;;;;;;;27.42;19.21;101106.34;5117227;28;815;-31
2021/04/01 10:55:17;;;;;;;;;;;;;;;27.48;19.07;101111.03;5117278;28;822;-36
2021/04/01 10:57:43;;;;;;;;;;;;;;;27.58;19.21;101108.13;5117304;28;775;-30
2021/04/01 11:00:08;;;;;;;;;;;;;;;27.58;19.24;101095.47;5116661;28;816;-33
2021/04/01 11:02:37;;;;;;;;;;;;;;;27.62;19.04;101090.53;5116232;28;953;-33
2021/04/01 11:05:09;;;;;;;;;;;;;;;27.65;18.89;101087.47;5098258;28;927;-32
2021/04/01 11:07:47;;;;;;;;;;;;;;;27.74;19.12;101078.31;5116629;28;756;-32
2021/04/01 11:10:25;;;;;;;;;;;;;;;27.80;19.27;101081.31;5117239;28;1902;-34
2021/04/01 11:12:51;;;;;;;;;;;;;;;27.68;18.89;101078.16;5115223;28;800;-29
2021/04/01 11:15:18;;;;;;;;;;;;;;;27.61;19.35;101076.19;5116324;28;816;-35
2021/04/01 11:17:43;;;;;;;;;;;;;;;27.58;19.46;101072.97;5116134;28;954;-31
2021/04/01 11:20:09;;;;;;;;;;;;;;;27.35;18.86;101071.94;5117120;28;744;-35
2021/04/01 11:22:34;;;;;;;;;;;;;;;27.30;19.60;101066.22;5114300;28;821;-31
2021/04/01 11:25:12;;;;;;;;;;;;;;;27.47;19.56;101064.28;5120360;28;818;-33
2021/04/01 11:27:39;;;;;;;;;;;;;;;27.54;19.24;101061.72;5113122;28;819;-34
2021/04/01 11:30:04;;;;;;;;;;;;;;;27.63;18.76;101055.22;5082255;28;1902;-30
2021/04/01 11:32:30;;;;;;;;;;;;;;;27.67;18.66;101047.59;5104257;28;1153;-34
2021/04/01 11:34:56;;;;;;;;;;;;;;;27.69;18.69;101042.91;5100487;28;823;-36
2021/04/01 11:37:22;;;;;;;;;;;;;;;27.78;19.00;101045.56;5100516;28;816;-38
2021/04/01 11:39:48;;;;;;;;;;;;;;;27.87;18.82;101041.75;5099808;28;1597;-33
2021/04/01 11:42:14;;;;;;;;;;;;;;;27.86;18.46;101032.78;5120219;28;1242;-31
2021/04/01 11:44:40;;;;;;;;;;;;;;;27.81;18.54;101037.91;5120078;28;818;-30
2021/04/01 11:47:20;;;;;;;;;;;;;;;27.82;18.61;101022.53;5114173;28;819;-32
2021/04/01 11:49:46;;;;;;;;;;;;;;;27.85;18.97;101020.31;5100494;28;1980;-35
2021/04/01 11:52:11;;;;;;;;;;;;;;;27.83;19.00;101016.94;5100075;28;749;-31
2021/04/01 11:54:37;;;;;;;;;;;;;;;27.91;18.61;101020.59;5099945;28;775;-38
2021/04/01 11:57:02;;;;;;;;;;;;;;;27.86;18.48;101015.75;5100305;28;737;-38
2021/04/01 11:59:35;;;;;;;;;;;;;;;27.79;18.28;101015.63;5081506;28;1354;-39
2021/04/01 12:02:05;;;;;;;;;;;;;;;27.75;18.91;101008.88;5082332;28;997;-31
2021/04/01 12:04:33;;;;;;;;;;;;;;;27.69;18.76;101007.78;5100026;28;862;-30
2021/04/01 12:06:58;;;;;;;;;;;;;;;27.62;18.66;100994.09;5082111;28;879;-31
2021/04/01 12:09:23;;;;;;;;;;;;;;;27.61;18.41;100992.41;5099899;28;1902;-32
2021/04/01 12:11:49;;;;;;;;;;;;;;;27.48;18.33;100989.47;5081429;28;1055;-35
2021/04/01 12:14:15;;;;;;;;;;;;;;;27.14;19.13;100991.53;5099362;28;740;-34
2021/04/01 12:16:40;;;;;;;;;;;;;;;26.99;19.13;100989.53;5099661;28;963;-31
2021/04/01 12:19:05;;;;;;;;;;;;;;;27.03;19.17;100990.06;5100138;28;755;-34
2021/04/01 12:21:31;;;;;;;;;;;;;;;27.03;19.15;100984.66;5099373;28;878;-38
2021/04/01 12:23:57;;;;;;;;;;;;;;;27.14;19.29;100978.88;5099578;28;811;-32
2021/04/01 12:26:22;;;;;;;;;;;;;;;27.12;19.34;100966.56;5081196;28;1423;-32
2021/04/01 12:28:55;;;;;;;;;;;;;;;27.05;19.45;100974.53;5099173;28;1971;-33
2021/04/01 12:31:27;;;;;;;;;;;;;;;27.23;19.36;100979.66;5099841;28;739;-32
2021/04/01 12:33:52;;;;;;;;;;;;;;;27.28;18.90;100976.44;5099088;28;832;-30
2021/04/01 12:36:28;;;;;;;;;;;;;;;27.22;19.18;100979.84;5098185;28;787;-40
2021/04/01 12:38:53;;;;;;;;;;;;;;;27.17;19.37;100966.88;5099608;28;767;-28
2021/04/01 12:41:28;;;;;;;;;;;;;;;27.08;19.40;100965.22;5099404;28;792;-32
2021/04/01 12:43:53;;;;;;;;;;;;;;;27.12;19.35;100963.88;5098824;28;1148;-32
2021/04/01 12:46:19;;;;;;;;;;;;;;;27.05;19.30;100963.75;5099378;28;829;-33
2021/04/01 12:48:47;;;;;;;;;;;;;;;27.01;19.51;100960.56;5098927;28;1985;-37
2021/04/01 12:51:13;;;;;;;;;;;;;;;27.09;19.59;100964.22;5098591;28;851;-41
2021/04/01 12:53:39;;;;;;;;;;;;;;;27.06;19.58;100959.19;5099310;28;767;-41
2021/04/01 12:56:21;;;;;;;;;;;;;;;27.07;19.51;100955.47;5111459;28;823;-39
2021/04/01 13:01:12;;;;;;;;;;;;;;;26.97;19.87;100953.81;5114898;28;842;-32
2021/04/01 13:03:37;;;;;;;;;;;;;;;26.90;19.72;100942.88;5083964;28;1420;-36
2021/04/01 13:06:06;;;;;;;;;;;;;;;26.86;19.97;100943.41;5104101;28;862;-34
2021/04/01 13:11:00;;;;;;;;;;;;;;;26.52;19.92;100946.25;5119078;28;787;-38
2021/04/01 13:13:25;;;;;;;;;;;;;;;26.53;19.98;100947.91;5102181;28;1186;-32
2021/04/01 13:15:51;;;;;;;;;;;;;;;26.35;20.01;100941.91;5098209;28;914;-41
2021/04/01 13:18:16;;;;;;;;;;;;;;;26.32;20.54;100947.63;5098449;28;998;-38
2021/04/01 13:20:41;;;;;;;;;;;;;;;26.36;20.21;100949.81;5098191;28;836;-40
2021/04/01 13:25:33;;;;;;;;;;;;;;;26.29;19.96;100949.63;5079879;28;868;-40
2021/04/01 13:28:05;;;;;;;;;;;;;;;26.48;20.18;100941.34;5097997;28;817;-34
2021/04/01 13:30:31;;;;;;;;;;;;;;;26.50;20.36;100942.88;5098267;28;1910;-31
2021/04/01 13:35:33;;;;;;;;;;;;;;;26.59;20.30;100932.06;5097813;28;775;-38
2021/04/01 13:38:10;;;;;;;;;;;;;;;26.71;20.18;100935.22;5097992;28;807;-39
2021/04/01 13:40:40;;;;;;;;;;;;;;;26.78;19.93;100928.94;5098489;28;796;-31
2021/04/01 13:43:06;;;;;;;;;;;;;;;27.16;19.65;100935.47;5102073;28;1206;-39
2021/04/01 13:45:31;;;;;;;;;;;;;;;27.65;19.45;100933.44;5117527;28;851;-32
2021/04/01 13:48:01;;;;;;;;;;;;;;;27.91;18.78;100925.97;5117483;28;1009;-32
2021/04/01 13:50:28;;;;;;;;;;;;;;;27.77;18.47;100924.91;5117717;28;1965;-38
2021/04/01 13:55:44;;;;;;;;;;;;;;;26.49;19.74;100913.38;5117634;28;906;-40
2021/04/01 14:11:34;;;;;;;;;;;;;;;26.43;20.02;100909.50;5097908;28;1154;-35
2021/04/01 14:13:59;;;;;;;;;;;;;;;26.62;19.78;100920.91;5117756;28;751;-33
2021/04/01 14:16:26;;;;;;;;;;;;;;;26.60;19.90;100915.69;5117437;28;954;-34
2021/04/01 14:18:51;;;;;;;;;;;;;;;26.03;20.03;100912.13;5099507;28;786;-37
2021/04/01 14:21:18;;;;;;;;;;;;;;;25.84;20.36;100916.88;5098987;28;1527;-34
2021/04/01 14:23:45;;;;;;;;;;;;;;;25.43;20.95;100915.84;5117763;28;815;-35
2021/04/01 14:28:54;;;;;;;;;;;;;;;26.33;20.14;100916.97;5117155;28;1898;-35
2021/04/01 14:31:19;;;;;;;;;;;;;;;25.85;20.51;100920.41;5117731;28;826;-37
2021/04/01 14:33:45;;;;;;;;;;;;;;;25.59;20.15;100916.03;5116890;28;1013;-32
2021/04/01 14:36:11;;;;;;;;;;;;;;;25.45;20.50;100915.69;5117548;28;732;-34
2021/04/01 14:38:36;;;;;;;;;;;;;;;25.72;20.67;100912.84;5117668;28;797;-33
2021/04/01 14:41:10;;;;;;;;;;;;;;;25.67;20.57;100907.97;5117264;28;802;-38
2021/04/01 14:46:01;;;;;;;;;;;;;;;25.43;20.56;100901.53;5117193;28;652;-30
2021/04/01 14:48:26;;;;;;;;;;;;;;;25.28;20.48;100904.06;5116783;28;1906;-29
2021/04/01 14:50:52;;;;;;;;;;;;;;;26.02;20.56;100910.44;5117210;28;862;-34
2021/04/01 14:54:05;;;;;;;;;;;;;;;25.96;20.82;100905.75;5117648;28;708;-33